sensor_id;sensor_type;location;lat;lon;timestamp;temperature;humidity
28023;DHT22;67403;50.104;8.758;2023-04-06T00:00:10;2.10;99.90
28023;DHT22;67403;50.104;8.758;2023-04-06T00:02:38;2.00;99.90
28023;DHT22;67403;50.104;8.758;2023-04-06T00:05:05;1.90;99.90
28023;DHT22;67403;50.104;8.758;2023-04-06T00:07:33;1.90;99.90
28023;DHT22;67403;50.104;8.758;2023-04-06T00:10:01;1.90;99.90
28023;DHT22;67403;50.104;8.758;2023-04-06T00:12:29;2.00;99.90
28023;DHT22;67403;50.104;8.758;2023-04-06T00:14:56;2.00;99.90
28023;DHT22;67403;50.104;8.758;2023-04-06T00:17:23;2.00;99.90
28023;DHT22;67403;50.104;8.758;2023-04-06T00:19:50;2.00;99.90
28023;DHT22;67403;50.104;8.758;2023-04-06T00:22:17;2.00;99.90
28023;DHT22;67403;50.104;8.758;2023-04-06T00:24:44;2.00;99.90
28023;DHT22;67403;50.104;8.758;2023-04-06T00:27:11;2.10;99.90
28023;DHT22;67403;50.104;8.758;2023-04-06T00:29:39;2.00;99.90
28023;DHT22;67403;50.104;8.758;2023-04-06T00:32:06;2.00;99.90
28023;DHT22;67403;50.104;8.758;2023-04-06T00:34:33;1.90;99.90
28023;DHT22;67403;50.104;8.758;2023-04-06T00:37:00;1.90;99.90
28023;DHT22;67403;50.104;8.758;2023-04-06T00:39:26;1.90;99.90
28023;DHT22;67403;50.104;8.758;2023-04-06T00:41:54;1.90;99.90
28023;DHT22;67403;50.104;8.758;2023-04-06T00:44:22;1.80;99.90
28023;DHT22;67403;50.104;8.758;2023-04-06T00:46:50;1.70;99.90
28023;DHT22;67403;50.104;8.758;2023-04-06T00:49:17;1.80;99.90
28023;DHT22;67403;50.104;8.758;2023-04-06T00:51:44;1.80;99.90
28023;DHT22;67403;50.104;8.758;2023-04-06T00:54:11;1.70;99.90
28023;DHT22;67403;50.104;8.758;2023-04-06T00:56:38;1.70;99.90
28023;DHT22;67403;50.104;8.758;2023-04-06T00:59:05;1.80;99.90
28023;DHT22;67403;50.104;8.758;2023-04-06T01:01:32;1.70;99.90
28023;DHT22;67403;50.104;8.758;2023-04-06T01:04:00;1.70;99.90
28023;DHT22;67403;50.104;8.758;2023-04-06T01:06:28;1.70;99.90
28023;DHT22;67403;50.104;8.758;2023-04-06T01:08:55;1.80;99.90
28023;DHT22;67403;50.104;8.758;2023-04-06T01:11:22;1.80;99.90
28023;DHT22;67403;50.104;8.758;2023-04-06T01:13:49;1.80;99.90
28023;DHT22;67403;50.104;8.758;2023-04-06T01:16:16;1.70;99.90
28023;DHT22;67403;50.104;8.758;2023-04-06T01:18:43;1.70;99.90
28023;DHT22;67403;50.104;8.758;2023-04-06T01:21:11;1.60;99.90
28023;DHT22;67403;50.104;8.758;2023-04-06T01:23:43;1.50;99.90
28023;DHT22;67403;50.104;8.758;2023-04-06T01:26:11;1.50;99.90
28023;DHT22;67403;50.104;8.758;2023-04-06T01:28:38;1.50;99.90
28023;DHT22;67403;50.104;8.758;2023-04-06T01:31:06;1.40;99.90
28023;DHT22;67403;50.104;8.758;2023-04-06T01:33:33;1.40;99.90
28023;DHT22;67403;50.104;8.758;2023-04-06T01:36:00;1.30;99.90
28023;DHT22;67403;50.104;8.758;2023-04-06T01:38:27;1.20;99.90
28023;DHT22;67403;50.104;8.758;2023-04-06T01:40:55;1.20;99.90
28023;DHT22;67403;50.104;8.758;2023-04-06T01:43:22;1.10;99.90
28023;DHT22;67403;50.104;8.758;2023-04-06T01:45:49;1.10;99.90
28023;DHT22;67403;50.104;8.758;2023-04-06T01:48:16;1.10;99.90
28023;DHT22;67403;50.104;8.758;2023-04-06T01:50:43;1.10;99.90
28023;DHT22;67403;50.104;8.758;2023-04-06T01:53:10;1.10;99.90
28023;DHT22;67403;50.104;8.758;2023-04-06T01:55:37;1.10;99.90
28023;DHT22;67403;50.104;8.758;2023-04-06T01:58:05;1.10;99.90
28023;DHT22;67403;50.104;8.758;2023-04-06T02:00:32;1.10;99.90
28023;DHT22;67403;50.104;8.758;2023-04-06T02:02:59;1.20;99.90
28023;DHT22;67403;50.104;8.758;2023-04-06T02:05:26;1.10;99.90
28023;DHT22;67403;50.104;8.758;2023-04-06T02:07:53;1.10;99.90
28023;DHT22;67403;50.104;8.758;2023-04-06T02:10:20;1.00;99.90
28023;DHT22;67403;50.104;8.758;2023-04-06T02:12:47;0.90;99.90
28023;DHT22;67403;50.104;8.758;2023-04-06T02:15:16;0.90;99.90
28023;DHT22;67403;50.104;8.758;2023-04-06T02:17:42;0.90;99.90
28023;DHT22;67403;50.104;8.758;2023-04-06T02:20:10;1.00;99.90
28023;DHT22;67403;50.104;8.758;2023-04-06T02:22:36;1.00;99.90
28023;DHT22;67403;50.104;8.758;2023-04-06T02:25:04;0.90;99.90
28023;DHT22;67403;50.104;8.758;2023-04-06T02:27:31;0.90;99.90
28023;DHT22;67403;50.104;8.758;2023-04-06T02:29:58;0.80;99.90
28023;DHT22;67403;50.104;8.758;2023-04-06T02:32:26;0.80;99.90
28023;DHT22;67403;50.104;8.758;2023-04-06T02:34:53;0.70;99.90
28023;DHT22;67403;50.104;8.758;2023-04-06T02:37:20;0.70;99.90
28023;DHT22;67403;50.104;8.758;2023-04-06T02:39:47;0.70;99.90
28023;DHT22;67403;50.104;8.758;2023-04-06T02:42:14;0.60;99.90
28023;DHT22;67403;50.104;8.758;2023-04-06T02:44:41;0.60;99.90
28023;DHT22;67403;50.104;8.758;2023-04-06T02:47:09;0.50;99.90
28023;DHT22;67403;50.104;8.758;2023-04-06T02:49:37;0.50;99.90
28023;DHT22;67403;50.104;8.758;2023-04-06T02:52:04;0.50;99.90
28023;DHT22;67403;50.104;8.758;2023-04-06T02:54:31;0.50;99.90
28023;DHT22;67403;50.104;8.758;2023-04-06T02:56:58;0.50;99.90
28023;DHT22;67403;50.104;8.758;2023-04-06T02:59:25;0.60;99.90
28023;DHT22;67403;50.104;8.758;2023-04-06T03:01:51;0.60;99.90
28023;DHT22;67403;50.104;8.758;2023-04-06T03:04:18;0.50;99.90
28023;DHT22;67403;50.104;8.758;2023-04-06T03:06:48;0.50;99.90
28023;DHT22;67403;50.104;8.758;2023-04-06T03:09:15;0.40;99.90
28023;DHT22;67403;50.104;8.758;2023-04-06T03:11:42;0.30;99.90
28023;DHT22;67403;50.104;8.758;2023-04-06T03:14:09;0.30;99.90
28023;DHT22;67403;50.104;8.758;2023-04-06T03:16:36;0.30;99.90
28023;DHT22;67403;50.104;8.758;2023-04-06T03:19:03;0.30;99.90
28023;DHT22;67403;50.104;8.758;2023-04-06T03:21:29;0.20;99.90
28023;DHT22;67403;50.104;8.758;2023-04-06T03:23:58;0.30;99.90
28023;DHT22;67403;50.104;8.758;2023-04-06T03:26:25;0.30;99.90
28023;DHT22;67403;50.104;8.758;2023-04-06T03:28:51;0.30;99.90
28023;DHT22;67403;50.104;8.758;2023-04-06T03:31:18;0.30;99.90
28023;DHT22;67403;50.104;8.758;2023-04-06T03:33:46;0.30;99.90
28023;DHT22;67403;50.104;8.758;2023-04-06T03:36:13;0.20;99.90
28023;DHT22;67403;50.104;8.758;2023-04-06T03:38:40;0.20;99.90
28023;DHT22;67403;50.104;8.758;2023-04-06T03:41:08;0.20;99.90
28023;DHT22;67403;50.104;8.758;2023-04-06T03:43:35;0.20;99.90
28023;DHT22;67403;50.104;8.758;2023-04-06T03:46:02;0.20;99.90
28023;DHT22;67403;50.104;8.758;2023-04-06T03:48:29;0.20;99.90
28023;DHT22;67403;50.104;8.758;2023-04-06T03:50:56;0.20;99.90
28023;DHT22;67403;50.104;8.758;2023-04-06T03:53:23;0.20;99.90
28023;DHT22;67403;50.104;8.758;2023-04-06T03:55:49;0.20;99.90
28023;DHT22;67403;50.104;8.758;2023-04-06T03:58:18;0.10;99.90
28023;DHT22;67403;50.104;8.758;2023-04-06T04:00:45;0.10;99.90
28023;DHT22;67403;50.104;8.758;2023-04-06T04:03:11;0.10;99.90
28023;DHT22;67403;50.104;8.758;2023-04-06T04:05:38;0.10;99.90
28023;DHT22;67403;50.104;8.758;2023-04-06T04:08:05;0.10;99.90
28023;DHT22;67403;50.104;8.758;2023-04-06T04:10:32;0.10;99.90
28023;DHT22;67403;50.104;8.758;2023-04-06T04:12:59;0.00;99.90
28023;DHT22;67403;50.104;8.758;2023-04-06T04:15:27;0.10;99.90
28023;DHT22;67403;50.104;8.758;2023-04-06T04:17:54;0.00;99.90
28023;DHT22;67403;50.104;8.758;2023-04-06T04:20:21;0.00;99.90
28023;DHT22;67403;50.104;8.758;2023-04-06T04:22:48;0.00;99.90
28023;DHT22;67403;50.104;8.758;2023-04-06T04:25:15;-0.10;99.90
28023;DHT22;67403;50.104;8.758;2023-04-06T04:27:42;-0.10;99.90
28023;DHT22;67403;50.104;8.758;2023-04-06T04:30:09;-0.20;99.90
28023;DHT22;67403;50.104;8.758;2023-04-06T04:32:37;-0.10;99.90
28023;DHT22;67403;50.104;8.758;2023-04-06T04:35:05;-0.10;99.90
28023;DHT22;67403;50.104;8.758;2023-04-06T04:37:32;-0.20;99.90
28023;DHT22;67403;50.104;8.758;2023-04-06T04:40:00;-0.20;99.90
28023;DHT22;67403;50.104;8.758;2023-04-06T04:42:27;-0.10;99.90
28023;DHT22;67403;50.104;8.758;2023-04-06T04:44:54;-0.10;99.90
28023;DHT22;67403;50.104;8.758;2023-04-06T04:47:20;-0.10;99.90
28023;DHT22;67403;50.104;8.758;2023-04-06T04:49:49;-0.20;99.90
28023;DHT22;67403;50.104;8.758;2023-04-06T04:52:16;-0.20;99.90
28023;DHT22;67403;50.104;8.758;2023-04-06T04:54:42;-0.20;99.90
28023;DHT22;67403;50.104;8.758;2023-04-06T04:57:09;-0.20;99.90
28023;DHT22;67403;50.104;8.758;2023-04-06T04:59:36;-0.20;99.90
28023;DHT22;67403;50.104;8.758;2023-04-06T05:02:03;-0.10;99.90
28023;DHT22;67403;50.104;8.758;2023-04-06T05:04:30;-0.10;99.90
28023;DHT22;67403;50.104;8.758;2023-04-06T05:07:06;-0.10;99.90
28023;DHT22;67403;50.104;8.758;2023-04-06T05:09:33;0.00;99.90
28023;DHT22;67403;50.104;8.758;2023-04-06T05:12:00;0.00;99.90
28023;DHT22;67403;50.104;8.758;2023-04-06T05:14:27;-0.10;99.90
28023;DHT22;67403;50.104;8.758;2023-04-06T05:16:54;-0.10;99.90
28023;DHT22;67403;50.104;8.758;2023-04-06T05:19:21;-0.10;99.90
28023;DHT22;67403;50.104;8.758;2023-04-06T05:21:48;-0.10;99.90
28023;DHT22;67403;50.104;8.758;2023-04-06T05:24:16;-0.10;99.90
28023;DHT22;67403;50.104;8.758;2023-04-06T05:26:43;-0.10;99.90
28023;DHT22;67403;50.104;8.758;2023-04-06T05:29:11;0.00;99.90
28023;DHT22;67403;50.104;8.758;2023-04-06T05:31:38;0.10;99.90
28023;DHT22;67403;50.104;8.758;2023-04-06T05:34:05;0.20;99.90
28023;DHT22;67403;50.104;8.758;2023-04-06T05:36:32;0.20;99.90
28023;DHT22;67403;50.104;8.758;2023-04-06T05:38:59;0.20;99.90
28023;DHT22;67403;50.104;8.758;2023-04-06T05:41:27;0.30;99.90
28023;DHT22;67403;50.104;8.758;2023-04-06T05:43:54;0.30;99.90
28023;DHT22;67403;50.104;8.758;2023-04-06T05:46:21;0.40;99.90
28023;DHT22;67403;50.104;8.758;2023-04-06T05:48:48;0.50;99.90
28023;DHT22;67403;50.104;8.758;2023-04-06T05:51:14;0.50;99.90
28023;DHT22;67403;50.104;8.758;2023-04-06T05:53:41;0.60;99.90
28023;DHT22;67403;50.104;8.758;2023-04-06T05:56:08;0.60;99.90
28023;DHT22;67403;50.104;8.758;2023-04-06T05:58:37;0.70;99.90
28023;DHT22;67403;50.104;8.758;2023-04-06T06:01:04;0.80;99.90
28023;DHT22;67403;50.104;8.758;2023-04-06T06:03:31;0.90;99.90
28023;DHT22;67403;50.104;8.758;2023-04-06T06:06:01;0.90;99.90
28023;DHT22;67403;50.104;8.758;2023-04-06T06:08:28;1.00;99.90
28023;DHT22;67403;50.104;8.758;2023-04-06T06:10:55;1.00;99.90
28023;DHT22;67403;50.104;8.758;2023-04-06T06:13:22;1.10;99.90
28023;DHT22;67403;50.104;8.758;2023-04-06T06:15:50;1.20;99.90
28023;DHT22;67403;50.104;8.758;2023-04-06T06:18:17;1.30;99.90
28023;DHT22;67403;50.104;8.758;2023-04-06T06:20:44;1.50;99.90
28023;DHT22;67403;50.104;8.758;2023-04-06T06:23:11;1.60;99.90
28023;DHT22;67403;50.104;8.758;2023-04-06T06:25:38;1.70;99.90
28023;DHT22;67403;50.104;8.758;2023-04-06T06:28:05;1.90;99.90
28023;DHT22;67403;50.104;8.758;2023-04-06T06:30:32;2.00;99.90
28023;DHT22;67403;50.104;8.758;2023-04-06T06:33:00;2.10;99.90
28023;DHT22;67403;50.104;8.758;2023-04-06T06:35:27;2.20;99.90
28023;DHT22;67403;50.104;8.758;2023-04-06T06:37:54;2.20;99.90
28023;DHT22;67403;50.104;8.758;2023-04-06T06:40:21;2.30;99.90
28023;DHT22;67403;50.104;8.758;2023-04-06T06:42:49;2.50;99.90
28023;DHT22;67403;50.104;8.758;2023-04-06T06:45:17;2.60;99.90
28023;DHT22;67403;50.104;8.758;2023-04-06T06:47:44;2.60;99.90
28023;DHT22;67403;50.104;8.758;2023-04-06T06:50:12;2.60;99.90
28023;DHT22;67403;50.104;8.758;2023-04-06T06:52:39;2.70;99.90
28023;DHT22;67403;50.104;8.758;2023-04-06T06:55:09;3.00;99.90
28023;DHT22;67403;50.104;8.758;2023-04-06T06:57:36;3.20;99.90
28023;DHT22;67403;50.104;8.758;2023-04-06T07:00:05;3.30;99.90
28023;DHT22;67403;50.104;8.758;2023-04-06T07:02:34;3.40;99.90
28023;DHT22;67403;50.104;8.758;2023-04-06T07:05:02;3.60;99.90
28023;DHT22;67403;50.104;8.758;2023-04-06T07:07:32;3.70;99.90
28023;DHT22;67403;50.104;8.758;2023-04-06T07:09:59;3.80;99.90
28023;DHT22;67403;50.104;8.758;2023-04-06T07:12:26;3.90;99.90
28023;DHT22;67403;50.104;8.758;2023-04-06T07:14:53;4.10;99.90
28023;DHT22;67403;50.104;8.758;2023-04-06T07:17:20;4.30;99.90
28023;DHT22;67403;50.104;8.758;2023-04-06T07:19:47;4.50;99.90
28023;DHT22;67403;50.104;8.758;2023-04-06T07:22:14;4.50;99.90
28023;DHT22;67403;50.104;8.758;2023-04-06T07:24:42;4.60;99.90
28023;DHT22;67403;50.104;8.758;2023-04-06T07:27:09;4.50;99.90
28023;DHT22;67403;50.104;8.758;2023-04-06T07:29:36;4.30;99.90
28023;DHT22;67403;50.104;8.758;2023-04-06T07:32:03;4.50;99.90
28023;DHT22;67403;50.104;8.758;2023-04-06T07:34:30;4.70;99.90
28023;DHT22;67403;50.104;8.758;2023-04-06T07:36:57;4.80;99.90
28023;DHT22;67403;50.104;8.758;2023-04-06T07:39:25;5.00;99.90
28023;DHT22;67403;50.104;8.758;2023-04-06T07:41:53;5.20;99.90
28023;DHT22;67403;50.104;8.758;2023-04-06T07:44:20;5.40;99.90
28023;DHT22;67403;50.104;8.758;2023-04-06T07:46:47;5.50;99.90
28023;DHT22;67403;50.104;8.758;2023-04-06T07:49:14;5.60;99.90
28023;DHT22;67403;50.104;8.758;2023-04-06T07:51:41;5.90;99.90
28023;DHT22;67403;50.104;8.758;2023-04-06T07:54:08;6.00;99.90
28023;DHT22;67403;50.104;8.758;2023-04-06T07:56:35;6.00;99.90
28023;DHT22;67403;50.104;8.758;2023-04-06T07:59:03;6.10;99.90
28023;DHT22;67403;50.104;8.758;2023-04-06T08:01:30;6.20;99.90
28023;DHT22;67403;50.104;8.758;2023-04-06T08:03:57;6.00;99.90
28023;DHT22;67403;50.104;8.758;2023-04-06T08:06:25;5.60;99.90
28023;DHT22;67403;50.104;8.758;2023-04-06T08:08:51;5.90;99.90
28023;DHT22;67403;50.104;8.758;2023-04-06T08:11:18;6.10;99.90
28023;DHT22;67403;50.104;8.758;2023-04-06T08:13:45;6.10;99.90
28023;DHT22;67403;50.104;8.758;2023-04-06T08:16:13;6.20;99.90
28023;DHT22;67403;50.104;8.758;2023-04-06T08:18:40;6.10;99.90
28023;DHT22;67403;50.104;8.758;2023-04-06T08:21:07;6.30;99.90
28023;DHT22;67403;50.104;8.758;2023-04-06T08:23:34;6.50;99.90
28023;DHT22;67403;50.104;8.758;2023-04-06T08:26:01;6.70;99.90
28023;DHT22;67403;50.104;8.758;2023-04-06T08:28:28;6.90;99.90
28023;DHT22;67403;50.104;8.758;2023-04-06T08:30:55;7.10;99.90
28023;DHT22;67403;50.104;8.758;2023-04-06T08:33:23;7.10;99.90
28023;DHT22;67403;50.104;8.758;2023-04-06T08:35:50;7.20;99.90
28023;DHT22;67403;50.104;8.758;2023-04-06T08:38:17;7.40;99.90
28023;DHT22;67403;50.104;8.758;2023-04-06T08:40:44;7.40;99.90
28023;DHT22;67403;50.104;8.758;2023-04-06T08:43:14;7.60;99.90
28023;DHT22;67403;50.104;8.758;2023-04-06T08:45:41;7.70;99.90
28023;DHT22;67403;50.104;8.758;2023-04-06T08:48:09;7.70;99.90
28023;DHT22;67403;50.104;8.758;2023-04-06T08:50:39;7.60;99.90
28023;DHT22;67403;50.104;8.758;2023-04-06T08:53:06;7.80;99.90
28023;DHT22;67403;50.104;8.758;2023-04-06T08:55:35;8.00;99.90
28023;DHT22;67403;50.104;8.758;2023-04-06T08:58:03;8.20;99.90
28023;DHT22;67403;50.104;8.758;2023-04-06T09:00:30;8.50;99.90
28023;DHT22;67403;50.104;8.758;2023-04-06T09:02:58;8.50;99.90
28023;DHT22;67403;50.104;8.758;2023-04-06T09:05:25;8.80;99.90
28023;DHT22;67403;50.104;8.758;2023-04-06T09:07:54;8.70;99.90
28023;DHT22;67403;50.104;8.758;2023-04-06T09:10:21;9.00;99.90
28023;DHT22;67403;50.104;8.758;2023-04-06T09:12:51;9.20;99.90
28023;DHT22;67403;50.104;8.758;2023-04-06T09:15:19;9.40;99.90
28023;DHT22;67403;50.104;8.758;2023-04-06T09:17:46;9.50;99.90
28023;DHT22;67403;50.104;8.758;2023-04-06T09:20:13;9.70;99.90
28023;DHT22;67403;50.104;8.758;2023-04-06T09:22:40;9.50;99.90
28023;DHT22;67403;50.104;8.758;2023-04-06T09:25:17;9.40;99.90
28023;DHT22;67403;50.104;8.758;2023-04-06T09:27:45;9.60;99.90
28023;DHT22;67403;50.104;8.758;2023-04-06T09:30:13;9.70;99.90
28023;DHT22;67403;50.104;8.758;2023-04-06T09:32:45;9.60;99.90
28023;DHT22;67403;50.104;8.758;2023-04-06T09:35:13;9.70;99.90
28023;DHT22;67403;50.104;8.758;2023-04-06T09:37:40;9.90;99.90
28023;DHT22;67403;50.104;8.758;2023-04-06T09:40:09;10.00;99.90
28023;DHT22;67403;50.104;8.758;2023-04-06T09:42:36;10.10;99.90
28023;DHT22;67403;50.104;8.758;2023-04-06T09:45:03;10.40;99.90
28023;DHT22;67403;50.104;8.758;2023-04-06T09:47:31;10.40;99.10
28023;DHT22;67403;50.104;8.758;2023-04-06T09:49:59;10.50;98.00
28023;DHT22;67403;50.104;8.758;2023-04-06T09:52:27;10.80;97.50
28023;DHT22;67403;50.104;8.758;2023-04-06T09:55:01;10.90;97.20
28023;DHT22;67403;50.104;8.758;2023-04-06T09:57:31;11.00;96.30
28023;DHT22;67403;50.104;8.758;2023-04-06T10:00:01;11.20;95.20
28023;DHT22;67403;50.104;8.758;2023-04-06T10:02:40;11.50;95.20
28023;DHT22;67403;50.104;8.758;2023-04-06T10:05:09;11.70;94.50
28023;DHT22;67403;50.104;8.758;2023-04-06T10:07:40;11.90;93.60
28023;DHT22;67403;50.104;8.758;2023-04-06T10:10:08;12.20;92.80
28023;DHT22;67403;50.104;8.758;2023-04-06T10:12:38;12.70;91.40
28023;DHT22;67403;50.104;8.758;2023-04-06T10:15:07;13.10;89.60
28023;DHT22;67403;50.104;8.758;2023-04-06T10:17:34;13.50;86.70
28023;DHT22;67403;50.104;8.758;2023-04-06T10:20:06;13.40;83.60
28023;DHT22;67403;50.104;8.758;2023-04-06T10:22:41;13.60;84.70
28023;DHT22;67403;50.104;8.758;2023-04-06T10:25:09;14.00;81.00
28023;DHT22;67403;50.104;8.758;2023-04-06T10:27:38;14.50;80.30
28023;DHT22;67403;50.104;8.758;2023-04-06T10:30:06;15.10;76.90
28023;DHT22;67403;50.104;8.758;2023-04-06T10:32:34;15.60;73.50
28023;DHT22;67403;50.104;8.758;2023-04-06T10:35:09;16.20;70.50
28023;DHT22;67403;50.104;8.758;2023-04-06T10:37:49;15.80;66.70
28023;DHT22;67403;50.104;8.758;2023-04-06T10:40:21;14.80;70.60
28023;DHT22;67403;50.104;8.758;2023-04-06T10:42:50;14.60;68.60
28023;DHT22;67403;50.104;8.758;2023-04-06T10:45:21;14.90;67.80
28023;DHT22;67403;50.104;8.758;2023-04-06T10:47:49;15.90;67.30
28023;DHT22;67403;50.104;8.758;2023-04-06T10:50:17;16.60;65.00
28023;DHT22;67403;50.104;8.758;2023-04-06T10:52:44;17.00;60.70
28023;DHT22;67403;50.104;8.758;2023-04-06T10:55:12;15.30;62.60
28023;DHT22;67403;50.104;8.758;2023-04-06T10:57:40;16.60;62.20
28023;DHT22;67403;50.104;8.758;2023-04-06T11:00:11;16.50;59.40
28023;DHT22;67403;50.104;8.758;2023-04-06T11:02:38;16.50;60.00
28023;DHT22;67403;50.104;8.758;2023-04-06T11:05:05;15.70;60.70
28023;DHT22;67403;50.104;8.758;2023-04-06T11:07:33;16.30;59.50
28023;DHT22;67403;50.104;8.758;2023-04-06T11:10:00;16.50;59.40
28023;DHT22;67403;50.104;8.758;2023-04-06T11:12:27;17.40;58.70
28023;DHT22;67403;50.104;8.758;2023-04-06T11:14:56;18.00;56.40
28023;DHT22;67403;50.104;8.758;2023-04-06T11:17:29;16.80;57.50
28023;DHT22;67403;50.104;8.758;2023-04-06T11:19:57;17.30;58.30
28023;DHT22;67403;50.104;8.758;2023-04-06T11:22:24;16.90;56.80
28023;DHT22;67403;50.104;8.758;2023-04-06T11:24:51;16.40;56.60
28023;DHT22;67403;50.104;8.758;2023-04-06T11:27:19;14.90;58.70
28023;DHT22;67403;50.104;8.758;2023-04-06T11:29:46;15.10;58.90
28023;DHT22;67403;50.104;8.758;2023-04-06T11:32:21;15.90;59.00
28023;DHT22;67403;50.104;8.758;2023-04-06T11:34:50;17.60;56.30
28023;DHT22;67403;50.104;8.758;2023-04-06T11:37:17;18.10;55.00
28023;DHT22;67403;50.104;8.758;2023-04-06T11:39:48;18.40;54.30
28023;DHT22;67403;50.104;8.758;2023-04-06T11:42:23;18.00;53.70
28023;DHT22;67403;50.104;8.758;2023-04-06T11:44:51;17.50;54.40
28023;DHT22;67403;50.104;8.758;2023-04-06T11:47:19;18.60;52.80
28023;DHT22;67403;50.104;8.758;2023-04-06T11:49:48;17.60;53.50
28023;DHT22;67403;50.104;8.758;2023-04-06T11:52:18;17.50;53.80
28023;DHT22;67403;50.104;8.758;2023-04-06T11:54:46;17.40;54.30
28023;DHT22;67403;50.104;8.758;2023-04-06T11:57:15;17.40;53.10
28023;DHT22;67403;50.104;8.758;2023-04-06T11:59:42;17.30;54.10
28023;DHT22;67403;50.104;8.758;2023-04-06T12:02:09;17.40;53.40
28023;DHT22;67403;50.104;8.758;2023-04-06T12:04:37;18.30;52.20
28023;DHT22;67403;50.104;8.758;2023-04-06T12:07:04;17.90;52.30
28023;DHT22;67403;50.104;8.758;2023-04-06T12:09:34;17.80;52.40
28023;DHT22;67403;50.104;8.758;2023-04-06T12:12:02;17.70;52.80
28023;DHT22;67403;50.104;8.758;2023-04-06T12:14:30;17.70;53.30
28023;DHT22;67403;50.104;8.758;2023-04-06T12:16:57;18.80;50.60
28023;DHT22;67403;50.104;8.758;2023-04-06T12:19:24;18.60;49.00
28023;DHT22;67403;50.104;8.758;2023-04-06T12:21:51;18.60;49.70
28023;DHT22;67403;50.104;8.758;2023-04-06T12:24:19;18.70;49.50
28023;DHT22;67403;50.104;8.758;2023-04-06T12:26:47;17.60;49.50
28023;DHT22;67403;50.104;8.758;2023-04-06T12:29:14;17.00;51.70
28023;DHT22;67403;50.104;8.758;2023-04-06T12:31:41;16.90;52.10
28023;DHT22;67403;50.104;8.758;2023-04-06T12:34:10;17.30;51.00
28023;DHT22;67403;50.104;8.758;2023-04-06T12:36:37;17.10;51.50
28023;DHT22;67403;50.104;8.758;2023-04-06T12:39:05;17.80;50.60
28023;DHT22;67403;50.104;8.758;2023-04-06T12:41:32;18.10;50.50
28023;DHT22;67403;50.104;8.758;2023-04-06T12:44:00;18.60;48.00
28023;DHT22;67403;50.104;8.758;2023-04-06T12:46:27;18.60;48.10
28023;DHT22;67403;50.104;8.758;2023-04-06T12:48:56;18.40;48.30
28023;DHT22;67403;50.104;8.758;2023-04-06T12:51:24;18.30;48.10
28023;DHT22;67403;50.104;8.758;2023-04-06T12:53:52;18.10;47.90
28023;DHT22;67403;50.104;8.758;2023-04-06T12:56:19;17.50;47.00
28023;DHT22;67403;50.104;8.758;2023-04-06T12:58:46;17.40;47.20
28023;DHT22;67403;50.104;8.758;2023-04-06T13:01:15;17.40;47.50
28023;DHT22;67403;50.104;8.758;2023-04-06T13:03:42;17.30;48.30
28023;DHT22;67403;50.104;8.758;2023-04-06T13:06:09;17.10;48.00
28023;DHT22;67403;50.104;8.758;2023-04-06T13:08:37;17.80;48.20
28023;DHT22;67403;50.104;8.758;2023-04-06T13:11:04;17.50;48.50
28023;DHT22;67403;50.104;8.758;2023-04-06T13:13:33;16.80;49.50
28023;DHT22;67403;50.104;8.758;2023-04-06T13:16:02;16.70;50.00
28023;DHT22;67403;50.104;8.758;2023-04-06T13:18:31;17.10;49.20
28023;DHT22;67403;50.104;8.758;2023-04-06T13:20:59;17.10;49.40
28023;DHT22;67403;50.104;8.758;2023-04-06T13:23:26;17.00;49.50
28023;DHT22;67403;50.104;8.758;2023-04-06T13:25:57;16.70;50.00
28023;DHT22;67403;50.104;8.758;2023-04-06T13:28:25;16.50;49.60
28023;DHT22;67403;50.104;8.758;2023-04-06T13:30:53;15.90;49.90
28023;DHT22;67403;50.104;8.758;2023-04-06T13:33:20;15.90;50.50
28023;DHT22;67403;50.104;8.758;2023-04-06T13:35:48;16.10;50.80
28023;DHT22;67403;50.104;8.758;2023-04-06T13:38:15;16.40;51.00
28023;DHT22;67403;50.104;8.758;2023-04-06T13:40:42;16.50;51.10
28023;DHT22;67403;50.104;8.758;2023-04-06T13:43:09;17.30;50.00
28023;DHT22;67403;50.104;8.758;2023-04-06T13:45:36;17.60;49.60
28023;DHT22;67403;50.104;8.758;2023-04-06T13:48:04;17.90;49.40
28023;DHT22;67403;50.104;8.758;2023-04-06T13:50:31;17.60;49.20
28023;DHT22;67403;50.104;8.758;2023-04-06T13:53:00;17.80;49.60
28023;DHT22;67403;50.104;8.758;2023-04-06T13:55:26;17.30;49.30
28023;DHT22;67403;50.104;8.758;2023-04-06T13:57:53;16.80;48.80
28023;DHT22;67403;50.104;8.758;2023-04-06T14:00:21;17.40;48.60
28023;DHT22;67403;50.104;8.758;2023-04-06T14:02:48;17.30;48.90
28023;DHT22;67403;50.104;8.758;2023-04-06T14:05:15;17.80;48.80
28023;DHT22;67403;50.104;8.758;2023-04-06T14:07:43;18.50;48.30
28023;DHT22;67403;50.104;8.758;2023-04-06T14:10:11;18.40;48.60
28023;DHT22;67403;50.104;8.758;2023-04-06T14:12:40;19.30;47.70
28023;DHT22;67403;50.104;8.758;2023-04-06T14:15:09;19.90;46.40
28023;DHT22;67403;50.104;8.758;2023-04-06T14:17:36;19.40;46.00
28023;DHT22;67403;50.104;8.758;2023-04-06T14:20:04;17.20;47.60
28023;DHT22;67403;50.104;8.758;2023-04-06T14:22:32;16.50;49.40
28023;DHT22;67403;50.104;8.758;2023-04-06T14:24:59;16.40;50.00
28023;DHT22;67403;50.104;8.758;2023-04-06T14:27:27;16.60;50.00
28023;DHT22;67403;50.104;8.758;2023-04-06T14:29:54;16.10;50.80
28023;DHT22;67403;50.104;8.758;2023-04-06T14:32:21;16.40;50.70
28023;DHT22;67403;50.104;8.758;2023-04-06T14:34:50;16.50;50.40
28023;DHT22;67403;50.104;8.758;2023-04-06T14:37:17;15.90;50.80
28023;DHT22;67403;50.104;8.758;2023-04-06T14:39:44;14.80;52.60
28023;DHT22;67403;50.104;8.758;2023-04-06T14:42:11;15.00;53.20
28023;DHT22;67403;50.104;8.758;2023-04-06T14:44:39;15.20;53.10
28023;DHT22;67403;50.104;8.758;2023-04-06T14:47:08;15.30;52.50
28023;DHT22;67403;50.104;8.758;2023-04-06T14:49:35;15.10;52.50
28023;DHT22;67403;50.104;8.758;2023-04-06T14:52:02;15.50;52.90
28023;DHT22;67403;50.104;8.758;2023-04-06T14:54:29;15.90;51.70
28023;DHT22;67403;50.104;8.758;2023-04-06T14:56:56;15.40;52.00
28023;DHT22;67403;50.104;8.758;2023-04-06T14:59:23;15.50;52.40
28023;DHT22;67403;50.104;8.758;2023-04-06T15:01:51;15.50;52.50
28023;DHT22;67403;50.104;8.758;2023-04-06T15:04:18;15.90;52.00
28023;DHT22;67403;50.104;8.758;2023-04-06T15:06:45;15.60;52.50
28023;DHT22;67403;50.104;8.758;2023-04-06T15:09:12;15.10;53.20
28023;DHT22;67403;50.104;8.758;2023-04-06T15:11:39;14.80;53.40
28023;DHT22;67403;50.104;8.758;2023-04-06T15:14:06;14.70;53.60
28023;DHT22;67403;50.104;8.758;2023-04-06T15:16:33;14.70;53.60
28023;DHT22;67403;50.104;8.758;2023-04-06T15:19:01;14.60;53.70
28023;DHT22;67403;50.104;8.758;2023-04-06T15:21:28;14.60;54.10
28023;DHT22;67403;50.104;8.758;2023-04-06T15:23:56;14.70;54.20
28023;DHT22;67403;50.104;8.758;2023-04-06T15:26:23;14.70;54.90
28023;DHT22;67403;50.104;8.758;2023-04-06T15:28:51;14.60;53.90
28023;DHT22;67403;50.104;8.758;2023-04-06T15:31:19;14.30;54.10
28023;DHT22;67403;50.104;8.758;2023-04-06T15:33:46;14.40;54.00
28023;DHT22;67403;50.104;8.758;2023-04-06T15:36:26;14.50;53.70
28023;DHT22;67403;50.104;8.758;2023-04-06T15:38:54;14.40;53.50
28023;DHT22;67403;50.104;8.758;2023-04-06T15:41:21;14.30;53.60